San Jose Del Cabo, Mexique

11:20 MDT le 02 septembre 2014 (GMT -0600)
El Zacatal | Change Station
CLOSE
Current Station
Stations météorologiques personnelles
Location: San Jose del Cabo, BAJA CALIFORNIA SUR
Altitude: 128 ft
Stations météo à proximité

Alt. 128 ft 23.10 °N, 109.71 °W | Updated 2 minutes ago

Mostly Cloudy
Nuageux
91.8 ° F
Paraît 109 ° F
N
5.0
Vent Variable Vent de SE
Gusts 7.0 mph

Aujourd'hui
Haut(e) -- | Bas -- ° F
--% Risque de précip.
Hier
Haut(e) -- | Bas -- ° F
Precip. -- pouce
7:01 AM 7:35 PM
Premier quartier, 53% visible
Pression 29.88 pouce
Visibilité 12.0 Miles terrestres
Nuages Nuageux 12000 ft
Nuageux 22000 ft
indice de chaleur 109 ° F
Point de rosée 80 ° F
Humidité 67%
Précipitations 0.00 pouce
Profondeur de la couche neigeuse Non disponible.
UV 4 sur 12
Pollen Non disponible.
Qualité de l'air Non disponible.
Flu Activity Non disponible.
METAR MMSL 021643Z 03005KT 12SM BKN120 BKN220 32/23 A2988 RMK 8/038 HZY ISOL CU SC

More Conditions Fewer Conditions

Pression 29.88 pouce
Visibilité 12.0 Miles terrestres
Nuages Nuageux 12000 ft
Nuageux 22000 ft
indice de chaleur 109 ° F
Point de rosée 80 ° F
Humidité 67%
Précipitations 0.00 pouce
Profondeur de la couche neigeuse Non disponible.
UV 4 sur 12
Pollen Non disponible.
Qualité de l'air Non disponible.
Flu Activity Non disponible.
METAR MMSL 021643Z 03005KT 12SM BKN120 BKN220 32/23 A2988 RMK 8/038 HZY ISOL CU SC

More Conditions Fewer Conditions

10-Day Weather Forecast

Almanac

Astronomie

Sep. 02, 2014 Lever Coucher
Temps réel 07:01 MDT 19:35 MDT
Crépuscule civil 06:38 MDT 19:57 MDT
Crépuscule nautique 06:11 MDT 20:24 MDT
Crépuscule astronomique 05:44 MDT 20:51 MDT
Lune 14:01 MDT 00:26 MDT
Durée de lumière visible 13h 19m
Longueur du jour
12h 33m
Tomorrow will be 1m 17s shorter.
Premier quartier, 53% of the Moon is Illuminated
Aujourd'hui
Premier quartier
Sep 8
Pleine lune
Sep 15
Dernier quartier
Sep 24
Nouveau
Oct 1
Premier quartier

Extrêmes aujourd'hui

Country Highs Country Lows

Community

WunderPhotos

Upload Photos

1,749,721 Photos téléchargées !

WunderBlogs® & News

By Dr. Jeff Masters
Director of Meteorology, Weather Underground
By Kari Strenfel
Meteorologist, Weather Underground
By Christopher C. Burt
Weather Historian, Weather Underground
September 2, 2014
September 2, 2014
September 2, 2014

Nearby

Qualité de l'air

Not available.

Épaisseur de neige

Not available.

Activité sismique

Ville Distance Mag. Time & Date
No recent earthquake activity has been reported nearby.
Minimum magnitude displayed is 2.5.

Températures des eaux côtières

Lieu Température
Aucun rapport de station

Stations météo à proximité